Wibaux, Montana
Current Conditions -  °F | °C
As of 3:55 PM on Wednesday 22 Oct 2014 (Local Time) from KGDV Reporting Station
Clear Clear  
Wind Chill: 63°   Ceiling: Unl
Heat Index: 63°   Visibility: 10mi
Dew Point: 34°   Wind: 21mph
Humidity: 34%   Direction: 270°W
Pressure: 29.89"   Gusts: 24mph
Location:  46.99°N, 104.19°W
Report Text: KGDV 222155Z AUTO 27018G21KT 10SM CLR 17/01 A2989 RMK AO1
Loading
Personal Weather Stations






























Interactive Weather Map
Tropical Storm Tracking
New forecast layout! Learn more

10-Day Weather Forecast

Advertisements
Track Severe Weather on mobile